Time;durP1;ratioP1;P1;durP2;ratioP2;P2;SDS_P1;SDS_P2;PMS_P1;PMS_P2;Temp;Humidity;BMP_temperature;BMP_pressure;BME280_temperature;BME280_humidity;BME280_pressure;Samples;Min_cycle;Max_cycle;Signal;HPM_P1;HPM_P2
2022/01/29 00:00:44;;;;;;;24.85;11.07;;;;;;;6.45;100.00;102897.00;5031859;28;20112;-69
2022/01/29 00:03:54;;;;;;;33.40;11.43;;;;;;;6.41;100.00;102880.13;5031950;28;20121;-71
2022/01/29 00:07:00;;;;;;;23.00;8.55;;;;;;;6.46;100.00;102881.09;5031958;28;20050;-71
2022/01/29 00:10:13;;;;;;;24.15;9.57;;;;;;;6.46;100.00;102877.56;5031738;28;20469;-71
2022/01/29 00:13:21;;;;;;;22.30;8.90;;;;;;;6.53;100.00;102871.50;5031997;28;20107;-72
2022/01/29 00:16:30;;;;;;;21.23;8.15;;;;;;;6.48;100.00;102873.19;5031711;28;20521;-72
2022/01/29 00:19:40;;;;;;;26.55;9.15;;;;;;;6.49;100.00;102874.97;5031579;28;20056;-72
2022/01/29 00:22:48;;;;;;;22.67;8.18;;;;;;;6.53;100.00;102860.88;5031708;28;20099;-72
2022/01/29 00:25:54;;;;;;;23.77;9.20;;;;;;;6.47;100.00;102853.72;5030250;28;20462;-80
2022/01/29 00:29:04;;;;;;;27.80;10.45;;;;;;;6.47;100.00;102850.16;5032568;28;20508;-79
2022/01/29 00:32:09;;;;;;;23.20;8.07;;;;;;;6.49;100.00;102838.72;5032119;28;20057;-70
2022/01/29 00:35:15;;;;;;;21.83;8.60;;;;;;;6.50;100.00;102834.31;5034962;28;20045;-71
2022/01/29 00:38:26;;;;;;;26.27;7.70;;;;;;;6.49;100.00;102845.81;5035108;28;20060;-70
2022/01/29 00:40:57;;;;;;;23.35;8.80;;;;;;;6.48;100.00;102846.66;5035138;28;20049;-70
2022/01/29 00:43:27;;;;;;;22.75;7.35;;;;;;;6.50;100.00;102843.19;5034935;28;20572;-70
2022/01/29 00:45:58;;;;;;;22.98;8.90;;;;;;;6.48;100.00;102830.75;5035408;28;20057;-80
2022/01/29 00:48:26;;;;;;;28.40;8.50;;;;;;;6.47;100.00;102831.59;5036014;28;20474;-79
2022/01/29 00:50:54;;;;;;;22.90;8.40;;;;;;;6.48;100.00;102838.69;5035810;28;20107;-80
2022/01/29 00:53:23;;;;;;;21.67;7.57;;;;;;;6.45;100.00;102839.56;5036076;28;20128;-80
2022/01/29 00:55:51;;;;;;;20.75;8.10;;;;;;;6.41;100.00;102829.75;5036515;28;20076;-78
2022/01/29 00:58:20;;;;;;;18.70;7.78;;;;;;;6.40;100.00;102827.06;5035830;28;20089;-80
2022/01/29 01:00:48;;;;;;;21.38;8.20;;;;;;;6.39;100.00;102820.00;5035832;28;20049;-79
2022/01/29 01:03:17;;;;;;;21.38;8.02;;;;;;;6.42;100.00;102818.28;5035157;28;20488;-70
2022/01/29 01:05:45;;;;;;;21.42;7.88;;;;;;;6.42;100.00;102818.28;5050006;28;20636;-70
2022/01/29 01:08:15;;;;;;;20.05;7.95;;;;;;;6.39;100.00;102814.69;5049410;28;20053;-70
2022/01/29 01:10:44;;;;;;;18.70;7.28;;;;;;;6.41;100.00;102808.53;5034814;28;20470;-79
2022/01/29 01:13:12;;;;;;;20.15;7.72;;;;;;;6.45;100.00;102812.13;5035340;28;20124;-78
2022/01/29 01:15:43;;;;;;;17.77;7.82;;;;;;;6.42;100.00;102798.81;5035093;28;20092;-79
2022/01/29 01:18:14;;;;;;;19.13;8.18;;;;;;;6.40;100.00;102787.28;5034909;28;20065;-70
2022/01/29 01:20:44;;;;;;;23.02;7.88;;;;;;;6.39;100.00;102794.34;5034586;28;20049;-69
2022/01/29 01:23:13;;;;;;;17.52;7.88;;;;;;;6.38;100.00;102787.25;5034544;28;20474;-69
2022/01/29 01:25:43;;;;;;;22.13;8.68;;;;;;;6.41;100.00;102792.63;5049725;28;20136;-78
2022/01/29 01:28:11;;;;;;;18.30;8.02;;;;;;;6.40;100.00;102784.63;5035043;28;20045;-78
2022/01/29 01:30:39;;;;;;;16.88;7.15;;;;;;;6.40;100.00;102789.94;5035373;28;20499;-78
2022/01/29 01:33:08;;;;;;;19.45;8.15;;;;;;;6.41;100.00;102789.09;5034724;28;20058;-78
2022/01/29 01:35:41;;;;;;;26.90;8.43;;;;;;;6.41;100.00;102782.00;5035256;28;20053;-77
2022/01/29 01:38:14;;;;;;;17.30;8.52;;;;;;;6.43;100.00;102780.28;5034965;28;20100;-78
2022/01/29 01:40:45;;;;;;;17.48;8.88;;;;;;;6.45;100.00;102789.16;5034431;28;20541;-78
2022/01/29 01:43:13;;;;;;;17.73;8.48;;;;;;;6.45;100.00;102783.88;5034402;28;20046;-78
2022/01/29 01:45:41;;;;;;;20.27;9.65;;;;;;;6.45;100.00;102790.91;5034667;28;20136;-78
2022/01/29 01:48:11;;;;;;;26.77;10.23;;;;;;;6.45;100.00;102782.94;5034493;28;20120;-77
2022/01/29 01:50:39;;;;;;;20.23;10.23;;;;;;;6.45;100.00;102770.59;5034441;28;20091;-77
2022/01/29 01:53:07;;;;;;;21.10;9.27;;;;;;;6.45;100.00;102778.56;5034638;28;20080;-78
2022/01/29 01:55:35;;;;;;;23.08;9.30;;;;;;;6.48;100.00;102767.09;5035080;28;20411;-77
2022/01/29 01:58:03;;;;;;;23.40;9.82;;;;;;;6.53;100.00;102765.41;5034362;28;20046;-78
2022/01/29 02:00:32;;;;;;;22.85;10.68;;;;;;;6.52;100.00;102755.66;5034380;28;20137;-77
2022/01/29 02:03:00;;;;;;;22.17;9.10;;;;;;;6.54;100.00;102764.53;5034458;28;20446;-77
2022/01/29 02:05:29;;;;;;;20.75;9.00;;;;;;;6.60;100.00;102761.09;5034238;28;20045;-77
2022/01/29 02:07:58;;;;;;;26.02;10.90;;;;;;;6.56;100.00;102757.50;5033540;28;20088;-76
2022/01/29 02:10:27;;;;;;;31.58;10.07;;;;;;;6.58;100.00;102753.09;5033550;28;20508;-77
2022/01/29 02:13:02;;;;;;;23.85;10.13;;;;;;;6.63;100.00;102743.44;5033320;28;20077;-76
2022/01/29 02:15:55;;;;;;;25.80;9.30;;;;;;;6.67;100.00;102752.34;5033409;28;20504;-76
2022/01/29 02:18:23;;;;;;;21.90;8.90;;;;;;;6.68;100.00;102744.41;5033035;28;20499;-76
2022/01/29 02:20:53;;;;;;;26.50;9.38;;;;;;;6.71;100.00;102739.16;5033932;28;20103;-75
2022/01/29 02:23:22;;;;;;;18.90;8.40;;;;;;;6.71;100.00;102739.16;5033136;28;20077;-75
2022/01/29 02:25:52;;;;;;;20.08;8.95;;;;;;;6.73;100.00;102729.44;5033358;28;20073;-74
2022/01/29 02:28:22;;;;;;;22.02;9.50;;;;;;;6.72;100.00;102735.63;5033561;28;20125;-73
2022/01/29 02:30:56;;;;;;;22.95;9.77;;;;;;;6.73;100.00;102728.56;5033731;28;20057;-74
2022/01/29 02:33:26;;;;;;;23.40;8.55;;;;;;;6.79;100.00;102725.09;5032931;28;20092;-69
2022/01/29 02:35:55;;;;;;;28.50;8.57;;;;;;;6.79;100.00;102722.44;5032930;28;20053;-69
2022/01/29 02:38:29;;;;;;;21.23;9.67;;;;;;;6.80;100.00;102709.19;5033019;28;20461;-67
2022/01/29 02:41:01;;;;;;;16.25;8.63;;;;;;;6.80;100.00;102703.00;5032394;28;20157;-68
2022/01/29 02:43:33;;;;;;;18.25;9.15;;;;;;;6.80;100.00;102695.03;5031451;28;20448;-68
2022/01/29 02:46:07;;;;;;;24.98;8.95;;;;;;;6.84;100.00;102703.03;5031652;28;20061;-68
2022/01/29 02:48:35;;;;;;;20.02;8.20;;;;;;;6.89;100.00;102695.16;5033035;28;20057;-73
2022/01/29 02:51:03;;;;;;;22.70;7.80;;;;;;;6.88;100.00;102688.09;5032809;28;20057;-74
2022/01/29 02:53:32;;;;;;;23.45;8.25;;;;;;;6.87;100.00;102683.63;5032724;28;20518;-74
2022/01/29 02:56:00;;;;;;;21.20;8.13;;;;;;;6.86;100.00;102682.75;5031731;28;20454;-74
2022/01/29 02:58:28;;;;;;;20.67;7.50;;;;;;;6.88;100.00;102678.34;5032775;28;20136;-74
2022/01/29 03:00:56;;;;;;;20.42;8.25;;;;;;;6.87;100.00;102675.66;5032413;28;20088;-75
2022/01/29 03:03:25;;;;;;;17.27;7.47;;;;;;;6.91;100.00;102667.78;5032961;28;20049;-74
2022/01/29 03:05:53;;;;;;;20.02;7.88;;;;;;;6.91;100.00;102667.78;5032917;28;20080;-75
2022/01/29 03:08:22;;;;;;;19.88;7.97;;;;;;;6.97;100.00;102663.41;5032853;28;20128;-75
2022/01/29 03:10:51;;;;;;;21.45;9.18;;;;;;;7.00;100.00;102659.03;5033329;28;20077;-75
2022/01/29 03:13:19;;;;;;;20.23;7.65;;;;;;;6.98;100.00;102663.44;5032481;28;20458;-75
2022/01/29 03:15:47;;;;;;;27.73;8.63;;;;;;;6.98;100.00;102654.56;5032790;28;20056;-75
2022/01/29 03:18:15;;;;;;;18.02;7.15;;;;;;;7.06;100.00;102655.53;5032951;28;20049;-76
2022/01/29 03:20:43;;;;;;;15.40;7.72;;;;;;;7.05;100.00;102643.16;5032401;28;20049;-70
2022/01/29 03:23:13;;;;;;;17.13;7.32;;;;;;;7.06;100.00;102656.44;5032424;28;20054;-71
2022/01/29 03:25:42;;;;;;;18.77;8.43;;;;;;;7.02;100.00;102654.63;5032097;28;20489;-71
2022/01/29 03:28:13;;;;;;;17.10;7.10;;;;;;;7.06;100.00;102643.16;5030955;28;20381;-70
2022/01/29 03:31:05;;;;;;;16.23;7.57;;;;;;;7.06;100.00;102640.50;5032475;28;20533;-71
2022/01/29 03:33:36;;;;;;;20.70;7.65;;;;;;;7.07;100.00;102637.00;5031185;28;20046;-70
2022/01/29 03:36:06;;;;;;;22.27;7.20;;;;;;;7.12;100.00;102637.03;5030622;28;20087;-71
2022/01/29 03:38:34;;;;;;;19.10;7.32;;;;;;;7.11;100.00;102628.16;5031166;28;20053;-68
2022/01/29 03:41:02;;;;;;;14.48;6.25;;;;;;;7.09;100.00;102626.38;5031967;28;20148;-68
2022/01/29 03:43:35;;;;;;;16.70;6.22;;;;;;;7.10;100.00;102621.09;5031397;28;20054;-67
2022/01/29 03:46:03;;;;;;;16.60;6.78;;;;;;;7.11;100.00;102624.63;5031919;28;20054;-67
2022/01/29 03:48:33;;;;;;;18.02;6.32;;;;;;;7.13;100.00;102627.31;5047134;28;20461;-67
2022/01/29 03:51:02;;;;;;;18.52;6.35;;;;;;;7.09;100.00;102624.63;5031546;28;20061;-67
2022/01/29 03:53:32;;;;;;;13.18;5.97;;;;;;;7.16;100.00;102627.34;5031961;28;20151;-68
2022/01/29 03:56:08;;;;;;;17.88;5.72;;;;;;;7.17;100.00;102614.09;5030484;28;20093;-68
2022/01/29 03:58:44;;;;;;;20.95;6.53;;;;;;;7.16;100.00;102627.34;5031528;28;20134;-68
2022/01/29 04:01:15;;;;;;;16.88;5.70;;;;;;;7.16;100.00;102625.56;5031439;28;20079;-68
2022/01/29 04:03:48;;;;;;;19.83;5.72;;;;;;;7.20;100.00;102610.56;5031677;28;20061;-68
2022/01/29 04:06:17;;;;;;;22.90;6.70;;;;;;;7.20;100.00;102614.13;5033138;28;20053;-68
2022/01/29 04:08:52;;;;;;;19.20;6.90;;;;;;;7.20;100.00;102611.47;5035607;28;20454;-68
2022/01/29 04:11:23;;;;;;;13.73;5.95;;;;;;;7.22;100.00;102603.50;5035588;28;20092;-68
2022/01/29 04:14:22;;;;;;;16.00;6.65;;;;;;;7.23;100.00;102608.81;5035752;28;20060;-68
2022/01/29 04:16:54;;;;;;;17.05;5.93;;;;;;;7.23;100.00;102600.84;5035528;28;20049;-68
2022/01/29 04:19:25;;;;;;;19.55;6.35;;;;;;;7.26;100.00;102607.97;5034097;28;20067;-68
2022/01/29 04:21:54;;;;;;;16.48;6.10;;;;;;;7.23;100.00;102605.28;5035610;28;20136;-68
2022/01/29 04:24:24;;;;;;;17.98;6.65;;;;;;;7.25;100.00;102604.44;5035429;28;20084;-76
2022/01/29 04:26:53;;;;;;;19.20;6.22;;;;;;;7.27;100.00;102609.75;5036149;28;20054;-76
2022/01/29 04:29:23;;;;;;;16.27;6.45;;;;;;;7.29;100.00;102608.91;5035787;28;20088;-76
2022/01/29 04:32:05;;;;;;;22.58;6.45;;;;;;;7.30;100.00;102599.16;5035370;28;20053;-76
2022/01/29 04:35:10;;;;;;;19.52;6.68;;;;;;;7.34;100.00;102595.66;5004912;28;20050;-76
2022/01/29 04:38:39;;;;;;;17.88;5.78;;;;;;;7.30;100.00;102591.19;5035385;28;20107;-77
2022/01/29 04:41:47;;;;;;;14.07;5.50;;;;;;;7.31;100.00;102589.44;5035765;28;20410;-68
2022/01/29 04:44:57;;;;;;;16.00;6.05;;;;;;;7.29;100.00;102592.97;5035024;28;20259;-69
2022/01/29 04:48:05;;;;;;;19.00;5.95;;;;;;;7.30;100.00;102580.56;5034434;28;20080;-69
2022/01/29 04:51:34;;;;;;;17.45;6.28;;;;;;;7.37;100.00;102578.84;5035290;28;20119;-69
2022/01/29 04:54:45;;;;;;;14.52;5.78;;;;;;;7.36;100.00;102571.78;5035037;28;20147;-69
2022/01/29 04:57:51;;;;;;;16.00;5.72;;;;;;;7.36;100.00;102564.69;5033789;28;20187;-69
2022/01/29 05:00:59;;;;;;;13.90;6.22;;;;;;;7.38;100.00;102559.41;5034126;28;20060;-69
2022/01/29 05:04:08;;;;;;;18.42;5.90;;;;;;;7.32;100.00;102559.34;5034668;28;20482;-69
2022/01/29 05:07:39;;;;;;;20.38;7.32;;;;;;;7.37;100.00;102560.28;5034182;28;20535;-69
2022/01/29 05:10:44;;;;;;;14.13;5.47;;;;;;;7.35;100.00;102562.91;5034658;28;20136;-68
2022/01/29 05:13:50;;;;;;;18.63;6.05;;;;;;;7.38;100.00;102567.38;5033446;28;20105;-69
2022/01/29 05:25:36;;;;;;;19.20;6.45;;;;;;;7.38;100.00;102570.91;5034593;28;20049;-69
2022/01/29 05:27:16;;;;;;;15.18;6.28;;;;;;;7.37;100.00;102562.91;5033982;28;20065;-69
2022/01/29 05:30:25;;;;;;;14.93;5.82;;;;;;;7.38;100.00;102565.59;5033714;28;20057;-69
2022/01/29 05:33:32;;;;;;;15.43;5.65;;;;;;;7.40;100.00;102562.97;5032889;28;20081;-69
2022/01/29 05:36:04;;;;;;;15.07;6.07;;;;;;;7.37;100.00;102561.19;5033611;28;20053;-69
2022/01/29 05:38:37;;;;;;;16.27;6.10;;;;;;;7.40;100.00;102565.59;5034002;28;20111;-69
2022/01/29 05:41:07;;;;;;;17.33;7.38;;;;;;;7.38;100.00;102567.38;5033656;28;20057;-69
2022/01/29 05:43:36;;;;;;;14.80;5.80;;;;;;;7.38;100.00;102565.59;5034350;28;20064;-77
2022/01/29 05:46:05;;;;;;;18.73;6.32;;;;;;;7.37;100.00;102557.59;5034074;28;20080;-76
2022/01/29 05:48:32;;;;;;;10.52;5.35;;;;;;;7.37;100.00;102555.88;5034175;28;20128;-77
2022/01/29 05:51:14;;;;;;;20.13;5.97;;;;;;;7.42;100.00;102558.53;5034178;28;20076;-70
2022/01/29 05:53:46;;;;;;;10.27;5.47;;;;;;;7.49;100.00;102557.69;5031605;28;20107;-70
2022/01/29 05:56:13;;;;;;;15.82;5.97;;;;;;;7.46;100.00;102557.72;5033929;28;20089;-77
2022/01/29 05:58:41;;;;;;;17.33;5.38;;;;;;;7.44;100.00;102548.81;5033451;28;20458;-77
2022/01/29 06:01:09;;;;;;;18.58;5.78;;;;;;;7.48;100.00;102553.28;5034056;28;20129;-77
2022/01/29 06:03:39;;;;;;;16.02;5.43;;;;;;;7.50;100.00;102543.56;5033895;28;20136;-77
2022/01/29 06:06:09;;;;;;;13.73;5.38;;;;;;;7.52;100.00;102543.56;5033715;28;20076;-75
2022/01/29 06:08:37;;;;;;;13.07;5.45;;;;;;;7.51;100.00;102539.13;5033446;28;20060;-77
2022/01/29 06:11:05;;;;;;;10.95;6.00;;;;;;;7.50;100.00;102537.38;5033779;28;20128;-77
2022/01/29 06:13:33;;;;;;;17.80;5.78;;;;;;;7.58;100.00;102543.63;5034032;28;20048;-77
2022/01/29 06:16:02;;;;;;;11.23;4.60;;;;;;;7.56;100.00;102535.66;5033898;28;20080;-76
2022/01/29 06:18:30;;;;;;;13.75;5.65;;;;;;;7.58;100.00;102544.50;5033479;28;20117;-77
2022/01/29 06:21:24;;;;;;;13.13;5.38;;;;;;;7.60;100.00;102539.22;5033681;28;20053;-76
2022/01/29 06:23:54;;;;;;;15.23;5.10;;;;;;;7.60;100.00;102533.91;5033585;28;20053;-76
2022/01/29 06:26:22;;;;;;;14.25;5.30;;;;;;;7.61;100.00;102531.25;5033752;28;20055;-76
2022/01/29 06:28:50;;;;;;;15.07;4.90;;;;;;;7.62;100.00;102529.47;5032840;28;20060;-76
2022/01/29 06:31:20;;;;;;;22.08;5.85;;;;;;;7.60;100.00;102524.16;5032815;28;20462;-77
2022/01/29 06:33:47;;;;;;;14.43;4.70;;;;;;;7.59;100.00;102519.72;5033353;28;20061;-76
2022/01/29 06:36:15;;;;;;;14.50;5.88;;;;;;;7.59;100.00;102518.81;5033959;28;20049;-76
2022/01/29 06:38:45;;;;;;;15.00;5.68;;;;;;;7.63;100.00;102516.22;5033664;28;20124;-76
2022/01/29 06:41:13;;;;;;;11.00;5.20;;;;;;;7.64;100.00;102512.69;5033396;28;20109;-76
2022/01/29 06:43:41;;;;;;;14.32;5.47;;;;;;;7.73;100.00;102527.78;5033171;28;20083;-76
2022/01/29 06:46:08;;;;;;;15.18;4.90;;;;;;;7.70;100.00;102506.50;5033149;28;20042;-76
2022/01/29 06:48:36;;;;;;;11.95;5.07;;;;;;;7.73;100.00;102513.59;5032983;28;20537;-76
2022/01/29 06:51:04;;;;;;;12.43;5.25;;;;;;;7.71;100.00;102505.63;5032882;28;20046;-76
2022/01/29 06:54:00;;;;;;;15.25;4.97;;;;;;;7.71;100.00;102504.75;5032912;28;20064;-76
2022/01/29 06:56:27;;;;;;;14.63;5.55;;;;;;;7.73;100.00;102502.97;5033496;28;20045;-76
2022/01/29 06:58:55;;;;;;;13.68;4.40;;;;;;;7.77;100.00;102499.47;5033190;28;20049;-76
2022/01/29 07:01:39;;;;;;;11.57;4.38;;;;;;;7.74;100.00;102499.44;5032593;28;20485;-76
2022/01/29 07:04:07;;;;;;;9.90;4.05;;;;;;;7.77;100.00;102492.38;5033239;28;20049;-76
2022/01/29 07:06:36;;;;;;;15.25;4.70;;;;;;;7.77;100.00;102492.38;5033026;28;20499;-76
2022/01/29 07:09:05;;;;;;;12.85;4.13;;;;;;;7.83;100.00;102492.44;5032612;28;20053;-76
2022/01/29 07:11:33;;;;;;;12.43;4.93;;;;;;;7.79;100.00;102489.72;5032702;28;20046;-76
2022/01/29 07:14:03;;;;;;;10.95;4.38;;;;;;;7.81;100.00;102491.50;5032839;28;20077;-76
2022/01/29 07:16:32;;;;;;;17.27;5.65;;;;;;;7.82;100.00;102495.94;5032434;28;20046;-76
2022/01/29 07:19:01;;;;;;;17.25;4.38;;;;;;;7.79;100.00;102489.72;5032989;28;20164;-76
2022/01/29 07:21:28;;;;;;;16.67;5.03;;;;;;;7.73;100.00;102489.69;5032695;28;20385;-76
2022/01/29 07:23:56;;;;;;;15.07;4.97;;;;;;;7.72;100.00;102488.81;5032159;28;20492;-76
2022/01/29 07:26:26;;;;;;;18.67;5.45;;;;;;;7.72;100.00;102488.81;5032985;28;20050;-76
2022/01/29 07:28:59;;;;;;;14.48;5.80;;;;;;;7.69;100.00;102491.44;5033116;28;20111;-69
2022/01/29 07:31:27;;;;;;;15.18;4.65;;;;;;;7.69;100.00;102491.44;5032393;28;20054;-76
2022/01/29 07:33:55;;;;;;;17.98;5.38;;;;;;;7.70;100.00;102479.06;5032328;28;20409;-76
2022/01/29 07:36:24;;;;;;;22.30;5.60;;;;;;;7.66;100.00;102478.13;5032179;28;20053;-76
2022/01/29 07:38:52;;;;;;;11.35;4.88;;;;;;;7.70;100.00;102471.97;5032299;28;20188;-76
2022/01/29 07:41:23;;;;;;;17.00;5.03;;;;;;;7.70;100.00;102477.28;5032019;28;20056;-68
2022/01/29 07:44:01;;;;;;;14.50;5.78;;;;;;;7.66;100.00;102470.16;5031471;28;20139;-69
2022/01/29 07:46:29;;;;;;;12.77;4.85;;;;;;;7.71;100.00;102462.22;5030794;28;20045;-68
2022/01/29 07:48:59;;;;;;;12.70;5.50;;;;;;;7.67;100.00;102463.97;5031375;28;20049;-68
2022/01/29 07:51:29;;;;;;;15.65;5.35;;;;;;;7.71;100.00;102454.25;5031828;28;20085;-68
2022/01/29 07:53:59;;;;;;;17.63;5.47;;;;;;;7.73;100.00;102450.75;5029934;28;20136;-68
2022/01/29 07:56:33;;;;;;;17.90;5.88;;;;;;;7.76;100.00;102442.75;5031839;28;20056;-68
2022/01/29 07:59:09;;;;;;;12.52;4.82;;;;;;;7.80;100.00;102443.69;5031387;28;20129;-68
2022/01/29 08:01:55;;;;;;;20.60;5.97;;;;;;;7.79;100.00;102432.16;5030782;28;20056;-68
2022/01/29 08:04:25;;;;;;;17.25;5.32;;;;;;;7.80;100.00;102431.28;5046822;28;20175;-68
2022/01/29 08:06:56;;;;;;;13.30;4.53;;;;;;;7.82;100.00;102439.25;5031705;28;20076;-68
2022/01/29 08:09:25;;;;;;;19.52;6.43;;;;;;;7.82;100.00;102426.84;5031887;28;20045;-68
2022/01/29 08:11:55;;;;;;;15.38;4.88;;;;;;;7.86;100.00;102436.59;5031254;28;20057;-68
2022/01/29 08:14:35;;;;;;;18.00;5.78;;;;;;;7.91;100.00;102433.09;5031552;28;20103;-68
2022/01/29 08:17:11;;;;;;;23.50;7.05;;;;;;;7.91;100.00;102425.13;5031101;28;20042;-68
2022/01/29 08:19:40;;;;;;;18.30;4.45;;;;;;;7.93;100.00;102423.34;5031859;28;20046;-75
2022/01/29 08:22:08;;;;;;;18.55;5.07;;;;;;;7.91;100.00;102415.38;5031574;28;20056;-78
2022/01/29 08:24:36;;;;;;;14.60;5.20;;;;;;;7.95;100.00;102426.91;5031871;28;20149;-75
2022/01/29 08:27:04;;;;;;;19.30;4.88;;;;;;;7.98;100.00;102433.13;5031275;28;20041;-75
2022/01/29 08:29:36;;;;;;;14.45;4.75;;;;;;;8.03;100.00;102426.03;5031254;28;20451;-68
2022/01/29 08:32:14;;;;;;;12.27;4.15;;;;;;;8.00;100.00;102423.41;5031497;28;20057;-68
2022/01/29 08:35:15;;;;;;;11.30;4.55;;;;;;;8.05;100.00;102426.06;5031354;28;20127;-71
2022/01/29 08:37:56;;;;;;;14.43;3.60;;;;;;;8.06;100.00;102432.28;5030893;28;20137;-68
2022/01/29 08:40:46;;;;;;;12.82;4.15;;;;;;;8.04;100.00;102411.88;5031523;28;20049;-69
2022/01/29 08:43:18;;;;;;;14.10;4.20;;;;;;;8.09;100.00;102414.56;5031280;28;20052;-69
2022/01/29 08:45:51;;;;;;;13.27;3.75;;;;;;;8.15;100.00;102419.00;5029051;28;20061;-75
2022/01/29 08:48:20;;;;;;;11.32;3.58;;;;;;;8.13;100.00;102420.78;5032123;28;20073;-77
2022/01/29 08:50:48;;;;;;;16.50;4.60;;;;;;;8.15;100.00;102416.34;5031059;28;20545;-77
2022/01/29 08:53:17;;;;;;;15.40;3.80;;;;;;;8.12;100.00;102414.59;5032665;28;20057;-75
2022/01/29 08:55:45;;;;;;;15.65;4.20;;;;;;;8.08;100.00;102411.91;5034951;28;20053;-78
2022/01/29 08:58:13;;;;;;;11.75;3.33;;;;;;;8.05;100.00;102404.78;5034817;28;20103;-74
2022/01/29 09:00:44;;;;;;;11.20;4.05;;;;;;;8.05;100.00;102399.47;5034738;28;20220;-77
2022/01/29 09:03:15;;;;;;;11.90;3.47;;;;;;;8.08;100.00;102398.59;5034811;28;20413;-74
2022/01/29 09:06:07;;;;;;;12.68;3.60;;;;;;;8.10;100.00;102389.72;5034449;28;20401;-74
2022/01/29 09:08:59;;;;;;;12.20;3.53;;;;;;;8.15;100.00;102393.28;5034483;28;20504;-76
2022/01/29 09:11:27;;;;;;;11.43;3.70;;;;;;;8.17;100.00;102406.59;5034279;28;20505;-77
2022/01/29 09:16:45;;;;;;;8.30;2.90;;;;;;;8.31;100.00;102393.31;5034432;28;20180;-70
2022/01/29 09:19:28;;;;;;;11.40;3.42;;;;;;;8.36;100.00;102403.13;5033717;28;20493;-69
2022/01/29 09:21:59;;;;;;;12.40;2.97;;;;;;;8.41;100.00;102396.03;5034236;28;20115;-69
2022/01/29 09:24:51;;;;;;;11.80;3.28;;;;;;;8.45;100.00;102393.41;5034479;28;20521;-69
2022/01/29 09:27:41;;;;;;;15.98;4.20;;;;;;;8.53;100.00;102389.88;5034133;28;20462;-69
2022/01/29 09:30:33;;;;;;;13.05;3.00;;;;;;;8.57;100.00;102396.09;5034081;28;20072;-69
2022/01/29 09:33:33;;;;;;;9.10;3.35;;;;;;;8.49;100.00;102382.75;5046235;28;20056;-69
2022/01/29 09:36:33;;;;;;;12.18;3.13;;;;;;;8.48;100.00;102381.00;5034257;28;20088;-69
2022/01/29 09:39:14;;;;;;;9.65;2.75;;;;;;;8.52;100.00;102372.13;5033903;28;20065;-70
2022/01/29 09:41:52;;;;;;;13.32;3.45;;;;;;;8.58;100.00;102366.81;5034166;28;20045;-70
2022/01/29 09:44:28;;;;;;;11.63;2.87;;;;;;;8.67;100.00;102365.94;5017618;28;20081;-77
2022/01/29 09:46:59;;;;;;;16.25;3.53;;;;;;;8.77;100.00;102366.81;5034116;28;20133;-70
2022/01/29 09:49:50;;;;;;;14.45;3.53;;;;;;;8.81;100.00;102355.28;5031710;28;20045;-71
2022/01/29 09:52:19;;;;;;;11.85;3.10;;;;;;;8.97;100.00;102348.16;5034037;28;20053;-77
2022/01/29 09:54:49;;;;;;;6.07;2.67;;;;;;;9.06;100.00;102348.16;5033998;28;20097;-77
2022/01/29 09:57:17;;;;;;;8.55;3.03;;;;;;;9.11;100.00;102334.84;5033784;28;20045;-77
2022/01/29 09:59:46;;;;;;;11.93;2.80;;;;;;;9.23;100.00;102332.16;5034240;28;20124;-77
2022/01/29 10:02:16;;;;;;;10.02;3.08;;;;;;;9.34;100.00;102338.31;5034137;28;20053;-77
2022/01/29 10:04:49;;;;;;;8.73;2.53;;;;;;;9.39;100.00;102348.94;5033613;28;20083;-78
2022/01/29 10:07:20;;;;;;;8.18;2.90;;;;;;;9.44;100.00;102344.50;5033708;28;20060;-78
2022/01/29 10:09:48;;;;;;;12.73;3.15;;;;;;;9.53;100.00;102331.16;5033633;28;20340;-77
2022/01/29 10:12:30;;;;;;;7.38;2.25;;;;;;;9.60;100.00;102344.44;5034156;28;20493;-71
2022/01/29 10:15:22;;;;;;;12.43;3.40;;;;;;;9.72;100.00;102355.03;5031507;28;20081;-71
2022/01/29 10:18:09;;;;;;;20.25;3.15;;;;;;;9.64;100.00;102367.53;5033177;28;20056;-71
2022/01/29 10:21:11;;;;;;;8.90;3.08;;;;;;;9.67;100.00;102362.16;5033498;28;20073;-71
2022/01/29 10:24:12;;;;;;;9.60;2.40;;;;;;;9.67;100.00;102346.19;5031828;28;20049;-72
2022/01/29 10:27:10;;;;;;;13.07;2.85;;;;;;;9.71;100.00;102350.63;5032341;28;20057;-71
2022/01/29 10:30:14;;;;;;;7.28;2.08;;;;;;;9.66;100.00;102349.75;5032729;28;20054;-72
2022/01/29 10:33:38;;;;;;;9.98;2.78;;;;;;;9.57;100.00;102349.78;5032680;28;20382;-72
2022/01/29 10:36:16;;;;;;;7.88;2.53;;;;;;;9.53;100.00;102332.91;5030933;28;20057;-70
2022/01/29 10:38:50;;;;;;;18.08;3.38;;;;;;;9.62;100.00;102340.88;5032424;28;20133;-76
2022/01/29 10:41:27;;;;;;;9.15;2.40;;;;;;;9.70;100.00;102338.16;5032207;28;20128;-70
2022/01/29 10:44:19;;;;;;;9.43;2.70;;;;;;;9.78;100.00;102328.38;5032677;28;20412;-70
2022/01/29 10:47:13;;;;;;;12.02;3.03;;;;;;;9.79;100.00;102337.25;5032834;28;20123;-77
2022/01/29 10:49:56;;;;;;;7.38;3.28;;;;;;;9.84;100.00;102330.09;5032961;28;20413;-69
2022/01/29 10:52:42;;;;;;;5.65;2.08;;;;;;;9.93;100.00;102339.84;5032253;28;20045;-69
2022/01/29 10:55:17;;;;;;;9.45;2.40;;;;;;;9.94;100.00;102331.81;5033215;28;20110;-71
2022/01/29 10:57:55;;;;;;;6.53;2.10;;;;;;;9.94;100.00;102323.81;5032143;28;20056;-71
2022/01/29 11:00:37;;;;;;;10.82;2.70;;;;;;;9.78;100.00;102314.16;5032052;28;20064;-69
2022/01/29 11:03:14;;;;;;;7.72;2.35;;;;;;;9.76;100.00;102305.28;5032431;28;20128;-69
2022/01/29 11:06:28;;;;;;;6.28;1.98;;;;;;;10.06;100.00;102301.53;5032504;28;20053;-69
2022/01/29 11:08:59;;;;;;;7.38;2.53;;;;;;;9.90;100.00;102285.63;5032091;28;20072;-70
2022/01/29 11:12:11;;;;;;;7.47;2.50;;;;;;;9.81;100.00;102292.81;5031944;28;20057;-70
2022/01/29 11:14:54;;;;;;;8.07;2.10;;;;;;;9.78;100.00;102283.03;5031894;28;20083;-70
2022/01/29 11:17:31;;;;;;;11.10;2.67;;;;;;;9.87;100.00;102287.44;5031841;28;20057;-70
2022/01/29 11:20:19;;;;;;;7.47;2.58;;;;;;;10.03;100.00;102277.56;5031839;28;20128;-70
2022/01/29 11:26:14;;;;;;;4.57;2.03;;;;;;;9.97;100.00;102291.81;5031984;28;20391;-70
2022/01/29 11:29:31;;;;;;;8.38;2.85;;;;;;;10.01;100.00;102277.59;5030890;28;20072;-70
2022/01/29 11:32:51;;;;;;;10.10;2.45;;;;;;;10.22;100.00;102270.31;5031733;28;20058;-70
2022/01/29 11:35:34;;;;;;;9.33;2.63;;;;;;;10.09;100.00;102275.72;5031587;28;20423;-70
2022/01/29 11:38:15;;;;;;;8.68;2.85;;;;;;;10.12;100.00;102266.81;5031390;28;20474;-70
2022/01/29 11:44:26;;;;;;;5.25;2.30;;;;;;;9.96;100.00;102276.72;5032746;28;20061;-79
2022/01/29 11:46:54;;;;;;;11.43;2.80;;;;;;;10.08;100.00;102251.75;5033349;28;20083;-78
2022/01/29 11:49:22;;;;;;;7.22;2.65;;;;;;;10.23;100.00;102264.97;5032663;28;20095;-79
2022/01/29 11:51:53;;;;;;;9.45;2.38;;;;;;;10.21;100.00;102269.41;5032925;28;20049;-79
2022/01/29 11:54:59;;;;;;;9.68;2.63;;;;;;;10.17;100.00;102273.00;5032962;28;20080;-79
2022/01/29 11:57:28;;;;;;;6.80;2.50;;;;;;;10.14;100.00;102266.81;5032504;28;20486;-79
2022/01/29 11:59:55;;;;;;;8.57;2.90;;;;;;;10.22;100.00;102256.97;5032803;28;20042;-79
2022/01/29 12:02:43;;;;;;;10.90;2.72;;;;;;;10.26;100.00;102250.72;5033232;28;20187;-79
2022/01/29 12:05:31;;;;;;;7.30;2.50;;;;;;;10.33;100.00;102227.56;5032967;28;20049;-79
2022/01/29 12:08:16;;;;;;;8.57;3.15;;;;;;;10.48;100.00;102242.56;5032945;28;20054;-79
2022/01/29 12:10:53;;;;;;;11.65;3.05;;;;;;;10.67;100.00;102205.88;5033559;28;20111;-79
2022/01/29 12:13:21;;;;;;;10.05;3.35;;;;;;;10.47;100.00;102201.63;5033449;28;20485;-79
2022/01/29 12:15:55;;;;;;;9.73;2.65;;;;;;;10.78;100.00;102206.66;5032441;28;20474;-79
2022/01/29 12:18:28;;;;;;;7.57;2.78;;;;;;;10.62;100.00;102196.16;5032423;28;20049;-79
2022/01/29 12:20:56;;;;;;;7.00;2.33;;;;;;;10.57;100.00;102207.75;5032269;28;20053;-79
2022/01/29 12:23:25;;;;;;;7.80;2.42;;;;;;;10.60;100.00;102205.94;5032955;28;20046;-79